createdAt,value
2018-12-09T00:01:04.133Z,7.60
2018-12-09T00:03:36.400Z,7.20
2018-12-09T00:06:09.386Z,7.47
2018-12-09T00:08:52.200Z,7.00
2018-12-09T00:11:22.432Z,6.93
2018-12-09T00:13:53.261Z,7.10
2018-12-09T00:16:23.883Z,7.00
2018-12-09T00:18:54.295Z,7.10
2018-12-09T00:21:24.228Z,7.23
2018-12-09T00:23:54.760Z,7.20
2018-12-09T00:26:25.294Z,6.83
2018-12-09T00:28:56.130Z,6.63
2018-12-09T00:31:26.968Z,6.77
2018-12-09T00:33:57.289Z,7.10
2018-12-09T00:36:27.236Z,7.13
2018-12-09T00:38:57.261Z,6.53
2018-12-09T00:41:27.536Z,6.83
2018-12-09T00:43:57.426Z,6.80
2018-12-09T00:46:27.486Z,6.97
2018-12-09T00:48:57.903Z,7.10
2018-12-09T00:51:28.746Z,6.80
2018-12-09T00:53:59.065Z,6.90
2018-12-09T00:56:29.808Z,6.67
2018-12-09T00:59:00.194Z,7.00
2018-12-09T01:01:30.551Z,6.87
2018-12-09T01:04:01.126Z,6.53
2018-12-09T01:06:31.605Z,6.97
2018-12-09T01:09:01.920Z,6.43
2018-12-09T01:11:33.350Z,6.63
2018-12-09T01:14:04.132Z,6.47
2018-12-09T01:16:34.021Z,6.60
2018-12-09T01:19:04.249Z,6.67
2018-12-09T01:21:34.780Z,6.93
2018-12-09T01:24:05.321Z,6.50
2018-12-09T01:26:36.584Z,6.50
2018-12-09T01:29:06.993Z,6.53
2018-12-09T01:31:37.519Z,6.63
2018-12-09T01:34:07.657Z,6.43
2018-12-09T01:36:37.651Z,6.40
2018-12-09T01:39:08.491Z,6.70
2018-12-09T01:41:39.325Z,6.50
2018-12-09T01:44:09.853Z,6.53
2018-12-09T01:46:40.068Z,6.30
2018-12-09T01:49:10.620Z,6.27
2018-12-09T01:51:41.445Z,6.30
2018-12-09T01:54:13.764Z,6.27
2018-12-09T01:56:45.568Z,6.33
2018-12-09T01:59:16.104Z,5.77
2018-12-09T02:01:46.840Z,6.60
2018-12-09T02:04:17.467Z,6.20
2018-12-09T02:06:48.348Z,5.80
2018-12-09T02:09:18.525Z,5.83
2018-12-09T02:11:49.158Z,5.73
2018-12-09T02:14:20.510Z,6.13
2018-12-09T02:16:51.645Z,6.03
2018-12-09T02:19:24.334Z,5.83
2018-12-09T02:21:54.748Z,5.80
2018-12-09T02:24:24.770Z,5.77
2018-12-09T02:26:54.981Z,5.63
2018-12-09T02:29:25.335Z,5.63
2018-12-09T02:31:55.892Z,5.83
2018-12-09T02:34:26.283Z,5.67
2018-12-09T02:36:57.505Z,5.80
2018-12-09T02:39:28.253Z,5.67
2018-12-09T02:41:57.561Z,5.40
2018-12-09T02:44:28.130Z,5.73
2018-12-09T02:46:59.538Z,5.50
2018-12-09T02:49:30.083Z,5.57
2018-12-09T02:52:00.906Z,5.43
2018-12-09T02:54:31.259Z,5.20
2018-12-09T02:57:02.581Z,5.60
2018-12-09T02:59:33.096Z,5.40
2018-12-09T03:02:03.687Z,5.17
2018-12-09T03:07:04.199Z,5.27
2018-12-09T03:09:34.600Z,5.13
2018-12-09T03:12:05.553Z,5.20
2018-12-09T03:14:35.667Z,5.33
2018-12-09T03:17:06.527Z,5.43
2018-12-09T03:19:36.512Z,5.37
2018-12-09T03:22:08.185Z,5.00
2018-12-09T03:24:39.008Z,5.50
2018-12-09T03:27:09.863Z,5.00
2018-12-09T03:29:40.172Z,5.27
2018-12-09T03:32:10.911Z,4.70
2018-12-09T03:34:41.437Z,5.33
2018-12-09T03:37:12.577Z,4.90
2018-12-09T03:39:42.796Z,4.90
2018-12-09T03:42:13.333Z,4.80
2018-12-09T03:44:44.347Z,4.70
2018-12-09T03:47:15.002Z,4.90
2018-12-09T03:49:45.530Z,4.97
2018-12-09T03:52:16.799Z,5.10
2018-12-09T03:54:47.169Z,4.87
2018-12-09T03:57:17.444Z,4.63
2018-12-09T03:59:47.953Z,4.67
2018-12-09T04:02:18.489Z,4.87
2018-12-09T04:04:49.078Z,4.40
2018-12-09T04:07:19.253Z,4.87
2018-12-09T04:09:50.493Z,4.47
2018-12-09T04:12:20.909Z,4.83
2018-12-09T04:14:51.750Z,4.40
2018-12-09T04:19:52.504Z,4.60
2018-12-09T04:22:22.862Z,4.20
2018-12-09T04:24:53.549Z,4.50
2018-12-09T04:27:24.388Z,4.47
2018-12-09T04:29:54.919Z,4.23
2018-12-09T04:32:25.445Z,4.37
2018-12-09T04:34:56.287Z,4.40
2018-12-09T04:37:26.797Z,4.30
2018-12-09T04:39:56.942Z,4.10
2018-12-09T04:42:27.566Z,4.10
2018-12-09T04:44:58.099Z,4.53
2018-12-09T04:47:30.187Z,4.10
2018-12-09T04:50:01.004Z,3.97
2018-12-09T04:52:31.446Z,4.47
2018-12-09T04:55:01.538Z,4.40
2018-12-09T04:57:32.276Z,4.10
2018-12-09T05:00:13.865Z,3.97
2018-12-09T05:02:44.706Z,4.17
2018-12-09T05:05:15.846Z,4.10
2018-12-09T05:07:46.374Z,4.20
2018-12-09T05:10:17.520Z,4.10
2018-12-09T05:12:48.352Z,4.10
2018-12-09T05:15:19.189Z,4.20
2018-12-09T05:17:49.722Z,4.00
2018-12-09T05:20:20.254Z,4.03
2018-12-09T05:22:50.795Z,4.00
2018-12-09T05:25:20.996Z,3.93
2018-12-09T05:27:51.561Z,3.90
2018-12-09T05:30:24.143Z,3.77
2018-12-09T05:32:54.741Z,4.10
2018-12-09T05:35:24.757Z,3.90
2018-12-09T05:37:54.693Z,3.90
2018-12-09T05:40:25.415Z,3.73
2018-12-09T05:42:55.624Z,3.93
2018-12-09T05:45:26.569Z,4.20
2018-12-09T05:47:56.991Z,3.70
2018-12-09T05:50:27.321Z,3.70
2018-12-09T05:52:57.745Z,3.50
2018-12-09T05:55:28.071Z,3.90
2018-12-09T05:57:58.357Z,3.53
2018-12-09T06:00:30.087Z,3.80
2018-12-09T06:03:00.786Z,3.70
2018-12-09T06:05:31.313Z,4.20
2018-12-09T06:08:01.845Z,3.80
2018-12-09T06:10:32.371Z,3.57
2018-12-09T06:13:02.900Z,3.70
2018-12-09T06:15:33.565Z,3.63
2018-12-09T06:18:04.571Z,3.60
2018-12-09T06:20:35.277Z,3.50
2018-12-09T06:23:05.950Z,3.67
2018-12-09T06:25:36.897Z,3.70
2018-12-09T06:28:07.152Z,3.80
2018-12-09T06:30:37.837Z,3.80
2018-12-09T06:33:08.665Z,3.70
2018-12-09T06:35:39.506Z,3.63
2018-12-09T06:38:10.021Z,3.80
2018-12-09T06:40:40.921Z,3.93
2018-12-09T06:43:11.418Z,3.90
2018-12-09T06:45:41.623Z,3.70
2018-12-09T06:48:12.220Z,3.93
2018-12-09T06:50:42.681Z,3.50
2018-12-09T06:53:13.217Z,3.50
2018-12-09T06:55:43.397Z,3.60
2018-12-09T06:58:13.674Z,3.80
2018-12-09T07:00:44.191Z,3.57
2018-12-09T07:03:14.538Z,3.70
2018-12-09T07:05:44.620Z,3.83
2018-12-09T07:08:15.474Z,3.70
2018-12-09T07:10:46.640Z,3.80
2018-12-09T07:13:17.240Z,3.50
2018-12-09T07:15:47.972Z,3.80
2018-12-09T07:18:18.225Z,3.50
2018-12-09T07:20:48.721Z,4.00
2018-12-09T07:23:19.257Z,3.77
2018-12-09T07:25:50.089Z,3.40
2018-12-09T07:28:20.313Z,3.70
2018-12-09T07:30:51.147Z,3.70
2018-12-09T07:33:21.460Z,3.63
2018-12-09T07:35:52.223Z,3.50
2018-12-09T07:38:22.260Z,3.50
2018-12-09T07:40:54.105Z,3.37
2018-12-09T07:43:25.027Z,3.50
2018-12-09T07:45:55.864Z,3.50
2018-12-09T07:48:26.698Z,3.47
2018-12-09T07:50:57.229Z,3.50
2018-12-09T07:53:28.676Z,3.60
2018-12-09T07:55:59.208Z,3.40
2018-12-09T07:58:29.297Z,3.40
2018-12-09T08:00:59.652Z,3.40
2018-12-09T08:03:30.489Z,3.60
2018-12-09T08:08:30.629Z,3.70
2018-12-09T08:11:00.024Z,3.10
2018-12-09T08:13:30.165Z,3.60
2018-12-09T08:16:00.336Z,3.43
2018-12-09T08:18:30.287Z,3.40
2018-12-09T08:21:00.818Z,3.30
2018-12-09T08:23:30.862Z,3.20
2018-12-09T08:26:00.956Z,3.47
2018-12-09T08:28:31.152Z,3.33
2018-12-09T08:31:01.188Z,3.20
2018-12-09T08:33:31.562Z,3.40
2018-12-09T08:36:01.940Z,3.40
2018-12-09T08:38:32.307Z,3.20
2018-12-09T08:41:02.701Z,3.33
2018-12-09T08:43:33.124Z,3.57
2018-12-09T08:46:03.410Z,3.10
2018-12-09T08:48:33.784Z,3.53
2018-12-09T08:51:04.382Z,3.07
2018-12-09T08:53:34.727Z,3.10
2018-12-09T08:56:05.561Z,3.17
2018-12-09T08:58:36.396Z,3.27
2018-12-09T09:01:06.942Z,3.10
2018-12-09T09:06:07.061Z,3.50
2018-12-09T09:08:37.384Z,3.27
2018-12-09T09:11:07.501Z,3.27
2018-12-09T09:13:40.636Z,3.00
2018-12-09T09:16:11.335Z,3.47
2018-12-09T09:18:42.089Z,3.43
2018-12-09T09:21:14.230Z,3.10
2018-12-09T09:23:45.374Z,3.20
2018-12-09T09:26:16.090Z,3.17
2018-12-09T09:28:46.682Z,3.40
2018-12-09T09:31:17.218Z,3.50
2018-12-09T09:33:47.912Z,3.30
2018-12-09T09:36:18.266Z,3.30
2018-12-09T09:38:48.517Z,2.90
2018-12-09T09:41:19.629Z,2.90
2018-12-09T09:43:50.470Z,2.97
2018-12-09T09:46:21.013Z,2.90
2018-12-09T09:48:51.522Z,3.10
2018-12-09T09:51:22.053Z,3.20
2018-12-09T09:53:52.529Z,2.73
2018-12-09T09:56:23.117Z,3.10
2018-12-09T09:58:53.441Z,3.03
2018-12-09T10:01:23.554Z,3.10
2018-12-09T10:06:23.056Z,2.80
2018-12-09T10:08:53.126Z,2.93
2018-12-09T10:11:23.825Z,2.97
2018-12-09T10:13:55.280Z,2.90
2018-12-09T10:16:25.815Z,2.87
2018-12-09T10:18:56.337Z,2.97
2018-12-09T10:21:26.874Z,2.90
2018-12-09T10:23:58.318Z,2.90
2018-12-09T10:26:36.205Z,3.00
2018-12-09T10:29:01.562Z,3.23
2018-12-09T10:31:32.210Z,2.90
2018-12-09T10:34:03.824Z,3.10
2018-12-09T10:36:34.341Z,2.80
2018-12-09T10:39:06.420Z,2.93
2018-12-09T10:41:36.944Z,3.23
2018-12-09T10:44:07.242Z,3.00
2018-12-09T10:46:37.485Z,3.00
2018-12-09T10:49:07.602Z,2.97
2018-12-09T10:51:37.833Z,2.57
2018-12-09T10:54:08.357Z,2.70
2018-12-09T10:56:39.216Z,2.90
2018-12-09T10:59:10.949Z,2.93
2018-12-09T11:01:46.397Z,3.30
2018-12-09T11:04:16.759Z,2.87
2018-12-09T11:06:46.670Z,3.10
2018-12-09T11:09:17.385Z,2.90
2018-12-09T11:11:47.728Z,3.00
2018-12-09T11:14:17.817Z,2.90
2018-12-09T11:16:48.172Z,2.73
2018-12-09T11:19:19.180Z,2.73
2018-12-09T11:21:49.723Z,2.83
2018-12-09T11:24:19.825Z,2.70
2018-12-09T11:26:51.090Z,2.83
2018-12-09T11:29:21.997Z,2.93
2018-12-09T11:31:51.962Z,2.60
2018-12-09T11:34:22.416Z,2.90
2018-12-09T11:36:53.259Z,3.10
2018-12-09T11:39:24.394Z,3.10
2018-12-09T11:41:54.570Z,2.90
2018-12-09T11:44:25.617Z,2.93
2018-12-09T11:46:57.104Z,2.83
2018-12-09T11:49:28.091Z,2.87
2018-12-09T11:51:58.956Z,2.80
2018-12-09T11:56:58.455Z,2.87
2018-12-09T11:59:29.581Z,2.80
2018-12-09T12:02:00.569Z,2.80
2018-12-09T12:04:30.713Z,2.70
2018-12-09T12:07:01.368Z,2.80
2018-12-09T12:09:31.537Z,2.70
2018-12-09T12:12:02.414Z,2.80
2018-12-09T12:14:32.879Z,2.80
2018-12-09T12:17:03.826Z,3.10
2018-12-09T12:19:33.989Z,3.00
2018-12-09T12:22:04.786Z,2.80
2018-12-09T12:29:33.899Z,3.03
2018-12-09T12:32:04.985Z,3.00
2018-12-09T12:34:35.058Z,2.93
2018-12-09T12:37:05.432Z,3.27
2018-12-09T12:39:36.176Z,2.93
2018-12-09T12:42:06.698Z,3.20
2018-12-09T12:44:38.444Z,3.00
2018-12-09T12:47:08.977Z,2.90
2018-12-09T12:49:40.101Z,3.00
2018-12-09T12:52:11.227Z,3.03
2018-12-09T12:54:41.259Z,2.90
2018-12-09T12:57:11.962Z,3.20
2018-12-09T12:59:42.203Z,2.87
2018-12-09T13:02:13.340Z,2.73
2018-12-09T13:04:44.875Z,2.93
2018-12-09T13:07:15.081Z,3.00
2018-12-09T13:09:45.250Z,2.50
2018-12-09T13:12:16.258Z,2.70
2018-12-09T13:14:46.910Z,3.07
2018-12-09T13:17:18.056Z,2.87
2018-12-09T13:19:48.593Z,2.80
2018-12-09T13:22:20.047Z,2.70
2018-12-09T13:24:51.178Z,2.90
2018-12-09T13:27:21.590Z,2.90
2018-12-09T13:29:51.904Z,3.10
2018-12-09T13:32:21.911Z,3.03
2018-12-09T13:34:52.163Z,2.87
2018-12-09T13:37:22.698Z,2.90
2018-12-09T13:42:22.530Z,2.67
2018-12-09T13:44:53.065Z,2.73
2018-12-09T13:47:23.914Z,2.77
2018-12-09T13:49:54.696Z,2.77
2018-12-09T13:52:24.621Z,2.70
2018-12-09T13:54:54.936Z,2.90
2018-12-09T13:57:25.328Z,3.00
2018-12-09T13:59:55.645Z,3.10
2018-12-09T14:02:25.965Z,3.30
2018-12-09T14:04:56.357Z,2.90
2018-12-09T14:07:27.202Z,3.07
2018-12-09T14:09:57.632Z,2.67
2018-12-09T14:12:28.254Z,2.90
2018-12-09T14:14:59.093Z,2.90
2018-12-09T14:17:29.895Z,2.97
2018-12-09T14:20:01.091Z,2.80
2018-12-09T14:22:31.916Z,3.07
2018-12-09T14:25:03.002Z,3.17
2018-12-09T14:27:33.590Z,2.97
2018-12-09T14:30:04.638Z,2.77
2018-12-09T14:32:35.888Z,2.90
2018-12-09T14:35:09.472Z,2.90
2018-12-09T14:37:40.374Z,2.87
2018-12-09T14:40:11.690Z,2.90
2018-12-09T14:42:41.772Z,3.00
2018-12-09T14:45:11.896Z,2.60
2018-12-09T14:47:42.380Z,2.67
2018-12-09T14:50:12.661Z,2.90
2018-12-09T14:52:43.183Z,2.83
2018-12-09T14:55:13.977Z,2.80
2018-12-09T14:57:44.329Z,3.37
2018-12-09T15:00:15.395Z,3.10
2018-12-09T15:02:45.923Z,2.90
2018-12-09T15:05:16.437Z,2.93
2018-12-09T15:07:47.561Z,3.07
2018-12-09T15:10:17.654Z,4.53
2018-12-09T15:12:48.029Z,5.77
2018-12-09T15:15:18.861Z,6.10
2018-12-09T15:17:49.816Z,6.73
2018-12-09T15:20:20.542Z,7.60
2018-12-09T15:22:51.070Z,7.70
2018-12-09T15:25:21.593Z,8.10
2018-12-09T15:27:52.484Z,8.63
2018-12-09T15:30:23.265Z,8.57
2018-12-09T15:32:53.570Z,8.60
2018-12-09T15:35:23.516Z,8.57
2018-12-09T15:37:53.724Z,8.97
2018-12-09T15:40:23.573Z,8.80
2018-12-09T15:42:53.976Z,9.40
2018-12-09T15:47:54.001Z,8.47
2018-12-09T15:50:24.388Z,8.37
2018-12-09T15:52:55.390Z,9.00
2018-12-09T15:55:25.865Z,8.97
2018-12-09T15:57:56.235Z,8.77
2018-12-09T16:00:30.873Z,8.03
2018-12-09T16:03:01.386Z,7.63
2018-12-09T16:05:32.460Z,7.77
2018-12-09T16:08:02.729Z,7.50
2018-12-09T16:10:33.311Z,7.77
2018-12-09T16:13:03.916Z,7.73
2018-12-09T16:15:33.978Z,7.47
2018-12-09T16:18:04.038Z,7.17
2018-12-09T16:20:35.511Z,6.93
2018-12-09T16:23:06.671Z,6.77
2018-12-09T16:25:37.321Z,7.20
2018-12-09T16:28:07.574Z,7.17
2018-12-09T16:30:38.062Z,6.87
2018-12-09T16:33:08.174Z,6.83
2018-12-09T16:35:38.374Z,6.47
2018-12-09T16:38:08.682Z,6.93
2018-12-09T16:40:39.133Z,6.17
2018-12-09T16:43:11.788Z,6.73
2018-12-09T16:45:42.346Z,6.53
2018-12-09T16:48:13.669Z,6.67
2018-12-09T16:50:44.181Z,6.50
2018-12-09T16:53:14.282Z,6.23
2018-12-09T16:55:44.954Z,6.37
2018-12-09T16:58:15.717Z,5.93
2018-12-09T17:00:45.749Z,6.40
2018-12-09T17:03:16.420Z,5.93
2018-12-09T17:05:46.662Z,5.80
2018-12-09T17:08:17.610Z,6.20
2018-12-09T17:10:48.916Z,6.07
2018-12-09T17:13:19.270Z,6.00
2018-12-09T17:15:50.984Z,5.87
2018-12-09T17:18:22.235Z,5.80
2018-12-09T17:20:52.403Z,6.10
2018-12-09T17:23:24.139Z,5.43
2018-12-09T17:25:54.377Z,5.83
2018-12-09T17:28:24.958Z,5.80
2018-12-09T17:30:55.855Z,5.37
2018-12-09T17:33:25.966Z,5.30
2018-12-09T17:35:55.297Z,5.40
2018-12-09T17:38:26.192Z,5.47
2018-12-09T17:40:56.644Z,5.47
2018-12-09T17:43:27.757Z,5.77
2018-12-09T17:45:58.365Z,5.10
2018-12-09T17:48:28.425Z,5.63
2018-12-09T17:50:59.270Z,6.13
2018-12-09T17:53:29.944Z,5.80
2018-12-09T17:56:00.550Z,6.10
2018-12-09T17:58:30.999Z,5.80
2018-12-09T18:01:01.822Z,5.73
2018-12-09T18:03:32.323Z,5.77
2018-12-09T18:06:02.842Z,5.37
2018-12-09T18:08:33.072Z,5.37
2018-12-09T18:11:03.548Z,5.27
2018-12-09T18:13:33.644Z,5.40
2018-12-09T18:16:05.190Z,5.27
2018-12-09T18:18:36.266Z,4.77
2018-12-09T18:21:10.299Z,5.30
2018-12-09T18:23:42.123Z,4.97
2018-12-09T18:26:15.902Z,4.77
2018-12-09T18:28:47.002Z,4.70
2018-12-09T18:31:17.876Z,4.90
2018-12-09T18:33:49.220Z,5.43
2018-12-09T18:36:21.593Z,5.07
2018-12-09T18:38:52.659Z,4.73
2018-12-09T18:41:23.150Z,4.70
2018-12-09T18:43:53.968Z,5.17
2018-12-09T18:46:26.815Z,4.70
2018-12-09T18:48:58.479Z,4.53
2018-12-09T18:51:29.360Z,4.43
2018-12-09T18:53:59.628Z,4.23
2018-12-09T18:56:30.791Z,4.63
2018-12-09T18:59:01.154Z,4.20
2018-12-09T19:01:32.012Z,4.80
2018-12-09T19:04:03.692Z,4.50
2018-12-09T19:06:34.582Z,4.43
2018-12-09T19:09:07.300Z,4.47
2018-12-09T19:11:37.439Z,4.53
2018-12-09T19:14:11.496Z,4.20
2018-12-09T19:16:44.228Z,4.10
2018-12-09T19:19:14.930Z,4.40
2018-12-09T19:21:45.573Z,4.20
2018-12-09T19:24:16.216Z,4.60
2018-12-09T19:26:46.827Z,4.57
2018-12-09T19:29:17.181Z,4.75
2018-12-09T19:31:47.518Z,4.63
2018-12-09T19:34:17.859Z,4.23
2018-12-09T19:36:47.877Z,4.20
2018-12-09T19:39:18.153Z,4.17
2018-12-09T19:44:20.760Z,4.13
2018-12-09T19:46:51.872Z,4.03
2018-12-09T19:49:22.301Z,4.45
2018-12-09T19:51:52.400Z,4.53
2018-12-09T19:54:22.744Z,4.50
2018-12-09T19:56:53.839Z,4.13
2018-12-09T19:59:24.369Z,4.10
2018-12-09T20:01:55.149Z,4.40
2018-12-09T20:04:26.294Z,3.90
2018-12-09T20:06:56.507Z,3.90
2018-12-09T20:09:27.132Z,3.80
2018-12-09T20:11:57.066Z,4.13
2018-12-09T20:14:27.020Z,4.10
2018-12-09T20:16:57.084Z,3.80
2018-12-09T20:19:27.673Z,3.80
2018-12-09T20:21:58.474Z,4.20
2018-12-09T20:24:29.913Z,3.93
2018-12-09T20:27:00.447Z,4.10
2018-12-09T20:29:31.093Z,3.73
2018-12-09T20:32:01.917Z,3.50
2018-12-09T20:34:32.027Z,4.43
2018-12-09T20:37:02.546Z,3.90
2018-12-09T20:39:33.467Z,4.00
2018-12-09T20:42:05.146Z,3.80
2018-12-09T20:44:35.732Z,3.83
2018-12-09T20:47:05.598Z,3.80
2018-12-09T20:49:35.809Z,3.97
2018-12-09T20:52:06.640Z,4.10
2018-12-09T20:54:38.107Z,3.70
2018-12-09T20:57:09.304Z,3.77
2018-12-09T20:59:40.096Z,4.00
2018-12-09T21:02:10.914Z,3.57
2018-12-09T21:04:41.702Z,3.53
2018-12-09T21:09:41.901Z,3.90
2018-12-09T21:12:13.486Z,3.93
2018-12-09T21:14:47.519Z,3.97
2018-12-09T21:17:18.074Z,3.80
2018-12-09T21:19:48.732Z,3.77
2018-12-09T21:22:20.224Z,3.90
2018-12-09T21:24:51.084Z,3.50
2018-12-09T21:27:24.854Z,3.37
2018-12-09T21:29:55.454Z,3.80
2018-12-09T21:32:26.503Z,3.77
2018-12-09T21:34:56.094Z,3.63
2018-12-09T21:37:26.013Z,3.60
2018-12-09T21:39:56.127Z,3.57
2018-12-09T21:42:27.383Z,3.80
2018-12-09T21:44:57.795Z,3.37
2018-12-09T21:47:28.251Z,3.63
2018-12-09T21:49:59.128Z,3.90
2018-12-09T21:52:30.315Z,3.40
2018-12-09T21:55:01.794Z,3.37
2018-12-09T21:57:31.811Z,3.57
2018-12-09T22:00:02.099Z,3.62
2018-12-09T22:02:33.203Z,3.60
2018-12-09T22:05:03.061Z,3.50
2018-12-09T22:07:33.512Z,3.40
2018-12-09T22:10:05.348Z,3.70
2018-12-09T22:12:36.177Z,3.30
2018-12-09T22:15:05.629Z,3.77
2018-12-09T22:17:36.031Z,3.80
2018-12-09T22:20:07.058Z,4.00
2018-12-09T22:22:38.011Z,3.60
2018-12-09T22:25:08.822Z,3.50
2018-12-09T22:27:40.279Z,4.00
2018-12-09T22:30:10.816Z,3.70
2018-12-09T22:32:41.150Z,3.23
2018-12-09T22:35:11.366Z,3.50
2018-12-09T22:37:41.138Z,3.60
2018-12-09T22:40:11.207Z,3.40
2018-12-09T22:42:41.906Z,3.33
2018-12-09T22:45:12.443Z,3.37
2018-12-09T22:47:43.770Z,3.63
2018-12-09T22:50:14.729Z,3.33
2018-12-09T22:52:45.892Z,3.40
2018-12-09T22:55:16.398Z,3.73
2018-12-09T22:57:47.243Z,3.40
2018-12-09T23:00:25.176Z,3.73
2018-12-09T23:03:04.274Z,3.73
2018-12-09T23:05:34.793Z,3.23
2018-12-09T23:08:06.252Z,3.30
2018-12-09T23:10:36.577Z,3.70
2018-12-09T23:13:06.992Z,3.60
2018-12-09T23:15:37.242Z,3.87
2018-12-09T23:18:08.262Z,3.80
2018-12-09T23:20:38.462Z,3.40
2018-12-09T23:23:08.809Z,3.60
2018-12-09T23:25:39.962Z,3.90
2018-12-09T23:28:09.875Z,3.50
2018-12-09T23:30:41.318Z,3.40
2018-12-09T23:33:12.152Z,3.20
2018-12-09T23:35:42.479Z,3.50
2018-12-09T23:38:12.347Z,3.30
2018-12-09T23:40:42.386Z,3.30
2018-12-09T23:43:13.308Z,3.17
2018-12-09T23:45:43.393Z,3.30
2018-12-09T23:48:13.595Z,3.80
2018-12-09T23:50:43.715Z,3.27
2018-12-09T23:53:14.032Z,3.43
2018-12-09T23:55:44.460Z,3.57
2018-12-09T23:58:14.993Z,3.30
